createdAt,value
2019-05-20T00:02:25.917Z,12.70
2019-05-20T00:04:50.129Z,12.17
2019-05-20T00:07:20.323Z,12.30
2019-05-20T00:09:50.607Z,11.07
2019-05-20T00:12:20.867Z,12.00
2019-05-20T00:14:51.025Z,11.27
2019-05-20T00:17:21.077Z,11.20
2019-05-20T00:19:51.268Z,11.60
2019-05-20T00:22:21.786Z,11.97
2019-05-20T00:24:51.917Z,11.57
2019-05-20T00:27:22.080Z,12.40
2019-05-20T00:29:52.280Z,11.20
2019-05-20T00:32:22.761Z,10.70
2019-05-20T00:34:52.978Z,11.37
2019-05-20T00:37:23.233Z,11.00
2019-05-20T00:39:53.310Z,11.80
2019-05-20T00:42:23.915Z,11.83
2019-05-20T00:44:54.368Z,11.33
2019-05-20T00:47:26.123Z,10.50
2019-05-20T00:49:57.599Z,11.50
2019-05-20T00:52:29.260Z,10.20
2019-05-20T00:54:59.462Z,11.70
2019-05-20T00:57:29.714Z,10.93
2019-05-20T01:00:00.988Z,12.60
2019-05-20T01:02:31.654Z,10.83
2019-05-20T01:05:01.752Z,11.93
2019-05-20T01:07:32.039Z,10.40
2019-05-20T01:10:02.164Z,11.27
2019-05-20T01:12:32.711Z,9.93
2019-05-20T01:15:02.819Z,10.70
2019-05-20T01:17:34.647Z,10.60
2019-05-20T01:20:05.783Z,10.23
2019-05-20T01:22:35.863Z,10.30
2019-05-20T01:25:08.028Z,11.53
2019-05-20T01:27:41.199Z,11.60
2019-05-20T01:30:12.417Z,11.70
2019-05-20T01:32:42.730Z,11.70
2019-05-20T01:35:13.519Z,12.87
2019-05-20T01:37:43.782Z,11.30
2019-05-20T01:40:14.562Z,10.30
2019-05-20T01:42:44.787Z,10.80
2019-05-20T01:45:15.061Z,10.00
2019-05-20T01:47:45.296Z,11.10
2019-05-20T01:50:15.702Z,10.75
2019-05-20T01:52:45.948Z,11.70
2019-05-20T01:55:16.234Z,11.17
2019-05-20T01:57:46.312Z,11.43
2019-05-20T02:00:16.974Z,12.57
2019-05-20T02:02:47.276Z,11.03
2019-05-20T02:05:18.613Z,12.10
2019-05-20T02:07:48.978Z,12.67
2019-05-20T02:10:19.473Z,11.00
2019-05-20T02:12:49.897Z,9.60
2019-05-20T02:15:26.816Z,13.60
2019-05-20T02:17:56.953Z,13.03
2019-05-20T02:20:27.132Z,14.17
2019-05-20T02:23:14.563Z,13.97
2019-05-20T02:25:47.622Z,14.50
2019-05-20T02:28:18.041Z,14.93
2019-05-20T02:30:48.134Z,16.97
2019-05-20T02:33:18.252Z,14.87
2019-05-20T02:35:48.388Z,14.30
2019-05-20T02:38:18.662Z,15.07
2019-05-20T02:40:48.974Z,17.00
2019-05-20T02:43:19.056Z,15.50
2019-05-20T02:45:49.220Z,15.90
2019-05-20T02:48:19.403Z,15.10
2019-05-20T02:50:49.536Z,16.40
2019-05-20T02:53:19.807Z,15.90
2019-05-20T02:55:50.093Z,17.10
2019-05-20T02:58:20.412Z,16.93
2019-05-20T03:00:50.641Z,16.10
2019-05-20T03:03:20.925Z,17.37
2019-05-20T03:05:52.377Z,17.30
2019-05-20T03:08:23.821Z,18.03
2019-05-20T03:10:54.383Z,17.80
2019-05-20T03:13:24.919Z,19.03
2019-05-20T03:15:55.266Z,16.57
2019-05-20T03:18:29.349Z,16.60
2019-05-20T03:21:00.497Z,17.20
2019-05-20T03:23:31.156Z,17.00
2019-05-20T03:26:01.550Z,15.20
2019-05-20T03:28:33.414Z,16.60
2019-05-20T03:31:03.735Z,17.30
2019-05-20T03:33:34.255Z,17.93
2019-05-20T03:36:04.607Z,21.07
2019-05-20T03:38:36.852Z,19.40
2019-05-20T03:41:07.490Z,21.97
2019-05-20T03:43:37.789Z,25.03
2019-05-20T03:46:08.725Z,24.87
2019-05-20T03:48:39.287Z,26.73
2019-05-20T03:51:12.441Z,22.45
2019-05-20T03:53:42.782Z,25.87
2019-05-20T03:56:13.521Z,26.70
2019-05-20T03:58:43.808Z,27.00
2019-05-20T04:01:15.399Z,30.32
2019-05-20T04:03:45.738Z,27.40
2019-05-20T04:06:15.839Z,24.37
2019-05-20T04:08:46.123Z,26.90
2019-05-20T04:11:16.671Z,27.73
2019-05-20T04:13:46.750Z,27.00
2019-05-20T04:16:16.857Z,31.57
2019-05-20T04:18:47.044Z,30.57
2019-05-20T04:21:17.389Z,30.87
2019-05-20T04:23:47.495Z,28.20
2019-05-20T04:26:17.761Z,30.60
2019-05-20T04:28:47.963Z,31.10
2019-05-20T04:31:18.044Z,29.07
2019-05-20T04:33:48.493Z,29.03
2019-05-20T04:36:18.591Z,34.77
2019-05-20T04:38:48.754Z,33.10
2019-05-20T04:41:18.988Z,32.50
2019-05-20T04:43:50.476Z,34.43
2019-05-20T04:46:20.601Z,36.70
2019-05-20T04:48:50.810Z,37.77
2019-05-20T04:51:20.989Z,36.70
2019-05-20T04:53:51.059Z,34.00
2019-05-20T04:56:21.766Z,37.57
2019-05-20T04:58:52.018Z,35.50
2019-05-20T05:01:36.697Z,33.17
2019-05-20T05:04:14.479Z,34.20
2019-05-20T05:06:46.168Z,35.17
2019-05-20T05:09:16.817Z,34.25
2019-05-20T05:11:46.903Z,32.20
2019-05-20T05:14:16.988Z,31.10
2019-05-20T05:16:47.053Z,32.53
2019-05-20T05:19:17.178Z,34.00
2019-05-20T05:21:48.702Z,33.47
2019-05-20T05:24:19.295Z,31.00
2019-05-20T05:26:49.673Z,31.77
2019-05-20T05:29:19.976Z,35.80
2019-05-20T05:31:50.076Z,36.13
2019-05-20T05:34:20.356Z,37.20
2019-05-20T05:36:50.652Z,35.33
2019-05-20T05:39:20.898Z,31.33
2019-05-20T05:41:51.133Z,34.07
2019-05-20T05:44:21.339Z,31.67
2019-05-20T05:46:51.572Z,36.30
2019-05-20T05:49:21.835Z,33.97
2019-05-20T05:51:52.017Z,33.90
2019-05-20T05:54:22.177Z,33.87
2019-05-20T05:56:52.299Z,37.93
2019-05-20T05:59:22.349Z,31.70
2019-05-20T06:01:53.813Z,33.00
2019-05-20T06:04:24.105Z,36.80
2019-05-20T06:06:54.230Z,29.90
2019-05-20T06:09:24.339Z,34.30
2019-05-20T06:11:57.482Z,30.67
2019-05-20T06:14:27.979Z,32.97
2019-05-20T06:16:59.168Z,35.73
2019-05-20T06:19:29.381Z,33.83
2019-05-20T06:22:00.402Z,36.70
2019-05-20T06:24:30.516Z,36.90
2019-05-20T06:27:01.111Z,34.33
2019-05-20T06:29:31.480Z,40.53
2019-05-20T06:32:01.844Z,28.93
2019-05-20T06:34:31.999Z,35.70
2019-05-20T06:37:03.926Z,33.47
2019-05-20T06:39:34.334Z,36.67
2019-05-20T06:42:04.591Z,34.30
2019-05-20T06:44:50.238Z,41.60
2019-05-20T06:47:07.128Z,35.10
2019-05-20T06:49:37.272Z,33.23
2019-05-20T06:52:07.448Z,33.83
2019-05-20T06:54:37.561Z,33.10
2019-05-20T06:57:07.870Z,34.63
2019-05-20T06:59:38.281Z,36.10
2019-05-20T07:02:08.502Z,33.47
2019-05-20T07:04:38.691Z,33.60
2019-05-20T07:07:20.557Z,34.88
2019-05-20T07:09:41.445Z,31.30
2019-05-20T07:12:11.767Z,35.70
2019-05-20T07:14:42.021Z,34.90
2019-05-20T07:17:12.465Z,38.63
2019-05-20T07:19:42.647Z,33.30
2019-05-20T07:22:13.116Z,38.00
2019-05-20T07:24:43.286Z,34.13
2019-05-20T07:27:13.479Z,33.83
2019-05-20T07:29:43.692Z,33.40
2019-05-20T07:32:13.897Z,34.77
2019-05-20T07:34:44.352Z,33.50
2019-05-20T07:37:14.549Z,30.70
2019-05-20T07:39:44.662Z,33.27
2019-05-20T07:42:16.453Z,33.93
2019-05-20T07:44:46.645Z,33.73
2019-05-20T07:47:17.014Z,34.67
2019-05-20T07:49:48.100Z,37.40
2019-05-20T07:52:19.025Z,33.83
2019-05-20T07:54:50.127Z,33.93
2019-05-20T07:57:24.087Z,33.47
2019-05-20T07:59:55.954Z,38.00
2019-05-20T08:02:27.027Z,38.80
2019-05-20T08:04:57.297Z,40.37
2019-05-20T08:07:48.371Z,35.07
2019-05-20T08:09:59.345Z,38.53
2019-05-20T08:12:29.531Z,34.97
2019-05-20T08:14:59.707Z,38.47
2019-05-20T08:17:29.874Z,33.37
2019-05-20T08:20:01.603Z,34.43
2019-05-20T08:22:31.814Z,32.97
2019-05-20T08:25:01.969Z,34.90
2019-05-20T08:27:32.327Z,36.67
2019-05-20T08:30:02.778Z,40.97
2019-05-20T08:32:32.919Z,34.37
2019-05-20T08:35:04.065Z,32.05
2019-05-20T08:37:44.853Z,33.83
2019-05-20T08:40:07.045Z,35.77
2019-05-20T08:42:37.512Z,35.17
2019-05-20T08:45:08.665Z,37.50
2019-05-20T08:47:38.819Z,34.87
2019-05-20T08:50:15.686Z,35.40
2019-05-20T08:52:42.476Z,36.27
2019-05-20T08:55:12.955Z,36.63
2019-05-20T08:57:43.087Z,34.70
2019-05-20T09:00:23.487Z,36.40
2019-05-20T09:02:53.623Z,35.40
2019-05-20T09:05:23.773Z,32.80
2019-05-20T09:08:02.982Z,32.40
2019-05-20T09:10:25.709Z,33.97
2019-05-20T09:12:56.532Z,34.13
2019-05-20T09:15:26.723Z,35.07
2019-05-20T09:17:57.226Z,32.93
2019-05-20T09:20:27.961Z,34.83
2019-05-20T09:22:58.047Z,32.73
2019-05-20T09:25:32.575Z,32.83
2019-05-20T09:28:02.784Z,33.27
2019-05-20T09:30:32.993Z,32.10
2019-05-20T09:33:03.792Z,32.33
2019-05-20T09:35:34.823Z,32.40
2019-05-20T09:38:18.434Z,31.23
2019-05-20T09:40:41.999Z,35.90
2019-05-20T09:43:12.337Z,31.40
2019-05-20T09:45:42.752Z,35.20
2019-05-20T09:48:13.657Z,35.13
2019-05-20T09:50:43.837Z,35.13
2019-05-20T09:53:15.403Z,33.20
2019-05-20T09:55:45.824Z,32.97
2019-05-20T09:58:16.042Z,32.85
2019-05-20T10:00:47.040Z,35.40
2019-05-20T10:03:18.682Z,33.00
2019-05-20T10:05:48.759Z,30.20
2019-05-20T10:08:34.486Z,28.63
2019-05-20T10:10:50.735Z,29.70
2019-05-20T10:13:20.870Z,28.73
2019-05-20T10:15:51.186Z,28.00
2019-05-20T10:18:36.086Z,29.60
2019-05-20T10:20:53.790Z,30.70
2019-05-20T10:23:23.867Z,30.70
2019-05-20T10:25:54.047Z,32.03
2019-05-20T10:28:24.139Z,31.63
2019-05-20T10:30:54.408Z,27.93
2019-05-20T10:33:24.860Z,31.90
2019-05-20T10:35:54.978Z,32.43
2019-05-20T10:38:25.164Z,31.27
2019-05-20T10:40:55.326Z,29.80
2019-05-20T10:43:25.516Z,28.80
2019-05-20T10:45:55.991Z,28.67
2019-05-20T10:48:32.449Z,29.77
2019-05-20T10:51:03.133Z,27.20
2019-05-20T10:53:33.212Z,29.83
2019-05-20T10:56:03.489Z,29.10
2019-05-20T10:58:34.966Z,28.80
2019-05-20T11:01:05.174Z,31.30
2019-05-20T11:03:35.434Z,30.13
2019-05-20T11:06:05.862Z,31.83
2019-05-20T11:08:36.304Z,29.43
2019-05-20T11:11:06.560Z,28.87
2019-05-20T11:13:36.699Z,29.80
2019-05-20T11:16:07.200Z,31.27
2019-05-20T11:18:37.393Z,29.33
2019-05-20T11:21:07.607Z,31.23
2019-05-20T11:23:38.049Z,26.30
2019-05-20T11:26:09.457Z,26.40
2019-05-20T11:28:39.604Z,27.93
2019-05-20T11:31:09.744Z,30.53
2019-05-20T11:33:39.994Z,29.57
2019-05-20T11:36:10.374Z,27.53
2019-05-20T11:38:40.656Z,29.87
2019-05-20T11:41:10.749Z,29.53
2019-05-20T11:43:41.083Z,26.50
2019-05-20T11:46:11.491Z,29.10
2019-05-20T11:48:41.734Z,31.20
2019-05-20T11:51:12.256Z,30.00
2019-05-20T11:53:42.335Z,29.87
2019-05-20T11:56:12.489Z,28.70
2019-05-20T11:58:42.660Z,28.40
2019-05-20T12:01:12.876Z,30.07
2019-05-20T12:03:43.221Z,32.30
2019-05-20T12:06:14.539Z,33.10
2019-05-20T12:08:45.869Z,27.83
2019-05-20T12:11:16.514Z,28.90
2019-05-20T12:13:46.670Z,29.40
2019-05-20T12:16:16.862Z,32.70
2019-05-20T12:18:47.247Z,29.80
2019-05-20T12:21:17.721Z,30.97
2019-05-20T12:23:47.810Z,33.00
2019-05-20T12:26:18.009Z,33.83
2019-05-20T12:28:48.382Z,33.17
2019-05-20T12:31:18.599Z,37.37
2019-05-20T12:33:48.734Z,32.70
2019-05-20T12:36:19.020Z,38.53
2019-05-20T12:38:52.266Z,38.97
2019-05-20T12:41:22.598Z,33.00
2019-05-20T12:44:10.231Z,35.50
2019-05-20T12:46:24.839Z,28.57
2019-05-20T12:48:55.245Z,31.77
2019-05-20T12:51:41.316Z,33.80
2019-05-20T12:54:11.697Z,27.90
2019-05-20T12:56:41.881Z,20.30
2019-05-20T12:59:12.164Z,32.00
2019-05-20T13:01:42.583Z,29.40
2019-05-20T13:04:12.825Z,29.40
2019-05-20T13:06:42.983Z,22.23
2019-05-20T13:09:13.120Z,26.10
2019-05-20T13:11:44.545Z,18.27
2019-05-20T13:14:14.722Z,16.97
2019-05-20T13:16:44.826Z,25.13
2019-05-20T13:19:15.027Z,19.20
2019-05-20T13:21:45.199Z,18.73
2019-05-20T13:24:21.748Z,19.02
2019-05-20T13:26:52.584Z,14.13
2019-05-20T13:29:22.779Z,17.17
2019-05-20T13:31:52.881Z,15.40
2019-05-20T13:34:23.054Z,14.27
2019-05-20T13:36:53.159Z,14.93
2019-05-20T13:39:23.458Z,13.43
2019-05-20T13:41:53.640Z,17.47
2019-05-20T13:44:23.810Z,13.23
2019-05-20T13:46:54.011Z,13.13
2019-05-20T13:49:24.182Z,16.87
2019-05-20T13:51:54.640Z,13.37
2019-05-20T13:54:24.781Z,10.30
2019-05-20T13:56:54.956Z,10.27
2019-05-20T13:59:25.224Z,10.47
2019-05-20T14:01:55.383Z,10.67
2019-05-20T14:04:25.737Z,10.50
2019-05-20T14:06:56.035Z,11.73
2019-05-20T14:09:26.277Z,12.20
2019-05-20T14:11:56.663Z,11.40
2019-05-20T14:14:26.889Z,9.63
2019-05-20T14:16:57.051Z,9.53
2019-05-20T14:19:27.171Z,7.63
2019-05-20T14:21:57.226Z,7.10
2019-05-20T14:24:27.380Z,7.97
2019-05-20T14:26:57.716Z,7.57
2019-05-20T14:29:29.456Z,7.30
2019-05-20T14:31:59.746Z,7.87
2019-05-20T14:34:29.970Z,7.50
2019-05-20T14:37:00.485Z,7.20
2019-05-20T14:39:30.756Z,8.10
2019-05-20T14:42:00.841Z,7.50
2019-05-20T14:44:32.296Z,8.17
2019-05-20T14:47:03.251Z,7.87
2019-05-20T14:49:33.436Z,10.30
2019-05-20T14:52:03.645Z,10.00
2019-05-20T14:54:34.087Z,10.67
2019-05-20T14:57:04.267Z,10.93
2019-05-20T14:59:34.472Z,11.83
2019-05-20T15:02:05.389Z,12.75
2019-05-20T15:04:36.032Z,13.40
2019-05-20T15:07:06.277Z,12.23
2019-05-20T15:09:36.531Z,15.03
2019-05-20T15:12:07.107Z,15.87
2019-05-20T15:14:37.198Z,13.87
2019-05-20T15:17:07.421Z,15.10
2019-05-20T15:19:37.602Z,14.80
2019-05-20T15:22:08.074Z,13.20
2019-05-20T15:24:38.311Z,14.80
2019-05-20T15:27:09.951Z,12.90
2019-05-20T15:29:40.076Z,15.80
2019-05-20T15:32:10.491Z,15.10
2019-05-20T15:34:40.672Z,14.37
2019-05-20T15:37:11.319Z,14.03
2019-05-20T15:39:41.648Z,11.43
2019-05-20T15:42:11.826Z,11.75
2019-05-20T15:44:42.259Z,11.70
2019-05-20T15:47:12.490Z,13.70
2019-05-20T15:49:42.657Z,11.93
2019-05-20T15:52:13.103Z,11.77
2019-05-20T15:54:43.292Z,12.43
2019-05-20T15:57:13.490Z,10.50
2019-05-20T15:59:46.290Z,11.07
2019-05-20T16:02:15.591Z,11.63
2019-05-20T16:04:46.010Z,12.97
2019-05-20T16:07:16.424Z,12.60
2019-05-20T16:09:46.557Z,15.40
2019-05-20T16:12:16.851Z,13.10
2019-05-20T16:14:51.165Z,14.77
2019-05-20T16:17:19.473Z,15.87
2019-05-20T16:19:49.683Z,16.10
2019-05-20T16:22:19.887Z,14.23
2019-05-20T16:24:50.306Z,14.83
2019-05-20T16:27:20.546Z,13.10
2019-05-20T16:30:05.463Z,11.97
2019-05-20T16:32:22.766Z,16.13
2019-05-20T16:34:52.834Z,14.60
2019-05-20T16:37:23.242Z,13.03
2019-05-20T16:39:54.971Z,12.67
2019-05-20T16:42:25.362Z,6.40
2019-05-20T16:44:55.637Z,6.80
2019-05-20T16:47:26.321Z,5.33
2019-05-20T16:49:56.410Z,5.57
2019-05-20T16:52:26.629Z,5.00
2019-05-20T16:54:56.831Z,3.93
2019-05-20T16:57:27.279Z,3.92
2019-05-20T16:59:57.525Z,4.90
2019-05-20T17:02:27.722Z,4.03
2019-05-20T17:04:57.924Z,5.50
2019-05-20T17:07:28.379Z,7.10
2019-05-20T17:09:58.488Z,6.07
2019-05-20T17:12:28.610Z,7.10
2019-05-20T17:14:58.870Z,7.57
2019-05-20T17:17:29.011Z,8.93
2019-05-20T17:20:00.787Z,8.00
2019-05-20T17:22:32.589Z,8.87
2019-05-20T17:25:05.223Z,8.43
2019-05-20T17:27:35.613Z,10.20
2019-05-20T17:30:06.342Z,13.20
2019-05-20T17:32:38.159Z,15.93
2019-05-20T17:35:09.411Z,24.23
2019-05-20T17:37:39.997Z,21.37
2019-05-20T17:40:11.863Z,25.20
2019-05-20T17:42:42.167Z,20.83
2019-05-20T17:45:12.887Z,20.62
2019-05-20T17:47:43.183Z,18.70
2019-05-20T17:50:15.617Z,21.10
2019-05-20T17:52:46.361Z,22.13
2019-05-20T17:55:16.870Z,23.13
2019-05-20T17:57:47.173Z,21.93
2019-05-20T18:00:23.280Z,20.57
2019-05-20T18:02:53.912Z,21.57
2019-05-20T18:05:24.262Z,21.63
2019-05-20T18:07:54.646Z,28.00
2019-05-20T18:10:25.841Z,27.60
2019-05-20T18:12:56.716Z,26.77
2019-05-20T18:15:26.802Z,26.00
2019-05-20T18:17:57.035Z,26.20
2019-05-20T18:20:27.266Z,24.07
2019-05-20T18:22:57.768Z,23.47
2019-05-20T18:25:28.000Z,23.53
2019-05-20T18:27:58.214Z,23.77
2019-05-20T18:30:28.607Z,24.23
2019-05-20T18:32:59.008Z,28.43
2019-05-20T18:35:29.657Z,25.73
2019-05-20T18:37:59.899Z,23.73
2019-05-20T18:40:30.162Z,28.73
2019-05-20T18:43:00.420Z,33.27
2019-05-20T18:45:30.884Z,31.13
2019-05-20T18:48:01.191Z,30.37
2019-05-20T18:50:31.508Z,32.80
2019-05-20T18:53:02.165Z,31.20
2019-05-20T18:55:34.913Z,30.43
2019-05-20T18:58:04.355Z,29.83
2019-05-20T19:00:34.575Z,37.27
2019-05-20T19:03:05.595Z,29.57
2019-05-20T19:05:36.131Z,34.57
2019-05-20T19:08:06.260Z,31.40
2019-05-20T19:10:36.481Z,28.70
2019-05-20T19:13:07.135Z,28.73
2019-05-20T19:15:37.482Z,26.13
2019-05-20T19:18:08.473Z,31.43
2019-05-20T19:20:39.050Z,29.17
2019-05-20T19:23:09.268Z,20.33
2019-05-20T19:25:43.847Z,23.70
2019-05-20T19:28:14.285Z,24.37
2019-05-20T19:30:44.722Z,31.00
2019-05-20T19:33:15.437Z,28.00
2019-05-20T19:35:46.272Z,30.20
2019-05-20T19:38:17.632Z,33.63
2019-05-20T19:40:48.079Z,34.50
2019-05-20T19:43:18.491Z,30.07
2019-05-20T19:45:48.730Z,30.07
2019-05-20T19:48:19.256Z,30.47
2019-05-20T19:50:49.470Z,33.63
2019-05-20T19:53:21.073Z,25.80
2019-05-20T19:55:51.283Z,25.20
2019-05-20T19:58:21.497Z,22.10
2019-05-20T20:00:51.837Z,22.63
2019-05-20T20:03:22.305Z,19.67
2019-05-20T20:05:52.540Z,18.97
2019-05-20T20:08:22.844Z,21.60
2019-05-20T20:10:53.183Z,18.47
2019-05-20T20:13:23.438Z,20.20
2019-05-20T20:15:53.676Z,17.80
2019-05-20T20:18:23.854Z,17.13
2019-05-20T20:20:54.307Z,13.50
2019-05-20T20:23:24.515Z,14.03
2019-05-20T20:25:54.743Z,15.20
2019-05-20T20:28:25.306Z,15.83
2019-05-20T20:30:55.454Z,18.37
2019-05-20T20:33:25.624Z,17.43
2019-05-20T20:35:56.098Z,21.00
2019-05-20T20:38:26.258Z,19.97
2019-05-20T20:40:56.430Z,20.57
2019-05-20T20:43:26.652Z,18.80
2019-05-20T20:45:56.859Z,19.13
2019-05-20T20:48:27.527Z,16.43
2019-05-20T20:50:57.644Z,17.40
2019-05-20T20:53:27.855Z,15.47
2019-05-20T20:55:58.037Z,13.50
2019-05-20T20:58:29.542Z,14.80
2019-05-20T21:00:59.655Z,13.60
2019-05-20T21:03:29.836Z,14.83
2019-05-20T21:06:00.023Z,14.27
2019-05-20T21:08:30.402Z,11.87
2019-05-20T21:11:00.521Z,12.40
2019-05-20T21:13:31.581Z,11.47
2019-05-20T21:16:01.764Z,9.37
2019-05-20T21:18:31.999Z,10.63
2019-05-20T21:21:04.417Z,9.60
2019-05-20T21:23:37.820Z,10.33
2019-05-20T21:26:06.644Z,9.83
2019-05-20T21:28:36.716Z,10.67
2019-05-20T21:31:07.093Z,11.33
2019-05-20T21:33:38.055Z,10.33
2019-05-20T21:36:08.532Z,11.67
2019-05-20T21:38:38.730Z,10.83
2019-05-20T21:41:08.921Z,12.73
2019-05-20T21:43:39.152Z,13.00
2019-05-20T21:46:09.609Z,10.68
2019-05-20T21:48:39.797Z,13.60
2019-05-20T21:51:09.960Z,15.00
2019-05-20T21:53:40.443Z,15.37
2019-05-20T21:56:11.588Z,16.83
2019-05-20T21:58:41.681Z,15.90
2019-05-20T22:01:12.255Z,15.37
2019-05-20T22:03:43.441Z,18.63
2019-05-20T22:06:13.905Z,14.00
2019-05-20T22:08:44.062Z,15.43
2019-05-20T22:11:14.182Z,17.57
2019-05-20T22:13:44.608Z,16.43
2019-05-20T22:16:14.769Z,16.80
2019-05-20T22:18:45.039Z,14.53
2019-05-20T22:21:16.753Z,11.97
2019-05-20T22:23:57.171Z,13.63
2019-05-20T22:26:27.356Z,13.00
2019-05-20T22:28:57.748Z,15.57
2019-05-20T22:31:27.928Z,17.30
2019-05-20T22:33:58.291Z,14.50
2019-05-20T22:36:28.618Z,15.70
2019-05-20T22:39:01.919Z,15.50
2019-05-20T22:41:33.226Z,16.23
2019-05-20T22:44:04.237Z,14.80
2019-05-20T22:46:34.355Z,12.50
2019-05-20T22:49:06.052Z,11.30
2019-05-20T22:51:36.348Z,13.00
2019-05-20T22:54:06.755Z,12.60
2019-05-20T22:56:36.969Z,10.23
2019-05-20T22:59:07.133Z,11.00
2019-05-20T23:01:37.286Z,10.40
2019-05-20T23:04:07.404Z,10.80
2019-05-20T23:06:37.840Z,10.00
2019-05-20T23:09:10.809Z,9.90
2019-05-20T23:11:40.045Z,9.43
2019-05-20T23:14:10.212Z,10.77
2019-05-20T23:16:40.300Z,10.60
2019-05-20T23:19:12.545Z,8.93
2019-05-20T23:21:42.790Z,9.40
2019-05-20T23:24:13.018Z,9.90
2019-05-20T23:26:43.105Z,10.07
2019-05-20T23:29:13.288Z,8.63
2019-05-20T23:31:43.408Z,8.80
2019-05-20T23:34:13.555Z,8.60
2019-05-20T23:36:43.988Z,8.00
2019-05-20T23:39:14.224Z,7.50
2019-05-20T23:41:44.372Z,7.60
2019-05-20T23:44:14.458Z,7.50
2019-05-20T23:46:44.596Z,7.30
2019-05-20T23:49:14.976Z,6.90
2019-05-20T23:51:45.094Z,5.90
2019-05-20T23:54:15.338Z,4.60
2019-05-20T23:56:45.500Z,5.27
2019-05-20T23:59:15.675Z,6.20
